sensor_id;sensor_type;location;lat;lon;timestamp;pressure;altitude;pressure_sealevel;temperature;humidity
56182;BME280;51963;46.052;14.544;2022-11-14T00:01:58;99102.47;;;9.56;100.00
56182;BME280;51963;46.052;14.544;2022-11-14T00:04:46;99111.56;;;9.53;100.00
56182;BME280;51963;46.052;14.544;2022-11-14T00:07:31;99118.94;;;9.41;100.00
56182;BME280;51963;46.052;14.544;2022-11-14T00:10:16;99106.03;;;9.21;100.00
56182;BME280;51963;46.052;14.544;2022-11-14T00:13:01;99118.91;;;9.33;100.00
56182;BME280;51963;46.052;14.544;2022-11-14T00:15:48;99128.13;;;9.20;100.00
56182;BME280;51963;46.052;14.544;2022-11-14T00:18:33;99118.53;;;9.11;100.00
56182;BME280;51963;46.052;14.544;2022-11-14T00:21:17;99113.41;;;9.01;100.00
56182;BME280;51963;46.052;14.544;2022-11-14T00:24:01;99121.94;;;8.95;100.00
56182;BME280;51963;46.052;14.544;2022-11-14T00:26:46;99120.72;;;8.81;100.00
56182;BME280;51963;46.052;14.544;2022-11-14T00:29:30;99108.97;;;8.67;100.00
56182;BME280;51963;46.052;14.544;2022-11-14T00:32:14;99125.31;;;8.79;100.00
56182;BME280;51963;46.052;14.544;2022-11-14T00:34:58;99116.75;;;8.77;100.00
56182;BME280;51963;46.052;14.544;2022-11-14T00:37:43;99123.03;;;8.84;100.00
56182;BME280;51963;46.052;14.544;2022-11-14T00:40:28;99102.25;;;8.81;100.00
56182;BME280;51963;46.052;14.544;2022-11-14T00:43:12;99095.88;;;8.92;100.00
56182;BME280;51963;46.052;14.544;2022-11-14T00:45:56;99107.66;;;9.14;100.00
56182;BME280;51963;46.052;14.544;2022-11-14T00:48:41;99108.16;;;9.18;100.00
56182;BME280;51963;46.052;14.544;2022-11-14T00:51:26;99105.84;;;9.06;100.00
56182;BME280;51963;46.052;14.544;2022-11-14T00:54:10;99094.47;;;9.22;100.00
56182;BME280;51963;46.052;14.544;2022-11-14T00:56:54;99101.09;;;9.27;100.00
56182;BME280;51963;46.052;14.544;2022-11-14T00:59:39;99099.09;;;9.20;100.00
56182;BME280;51963;46.052;14.544;2022-11-14T01:02:23;99093.44;;;9.07;100.00
56182;BME280;51963;46.052;14.544;2022-11-14T01:05:07;99097.09;;;9.14;100.00
56182;BME280;51963;46.052;14.544;2022-11-14T01:07:51;99093.84;;;9.29;100.00
56182;BME280;51963;46.052;14.544;2022-11-14T01:10:44;99097.78;;;9.24;100.00
56182;BME280;51963;46.052;14.544;2022-11-14T01:13:30;99106.03;;;9.21;100.00
56182;BME280;51963;46.052;14.544;2022-11-14T01:16:15;99103.31;;;8.97;100.00
56182;BME280;51963;46.052;14.544;2022-11-14T01:19:03;99105.44;;;8.93;100.00
56182;BME280;51963;46.052;14.544;2022-11-14T01:21:47;99108.31;;;9.16;100.00
56182;BME280;51963;46.052;14.544;2022-11-14T01:24:32;99098.97;;;9.30;100.00
56182;BME280;51963;46.052;14.544;2022-11-14T01:27:17;99097.81;;;9.41;100.00
56182;BME280;51963;46.052;14.544;2022-11-14T01:30:02;99079.84;;;9.36;100.00
56182;BME280;51963;46.052;14.544;2022-11-14T01:32:47;99087.44;;;9.31;100.00
56182;BME280;51963;46.052;14.544;2022-11-14T01:35:32;99081.84;;;9.43;100.00
56182;BME280;51963;46.052;14.544;2022-11-14T01:38:17;99082.00;;;9.41;100.00
56182;BME280;51963;46.052;14.544;2022-11-14T01:41:01;99084.97;;;9.46;100.00
56182;BME280;51963;46.052;14.544;2022-11-14T01:43:46;99086.94;;;9.36;100.00
56182;BME280;51963;46.052;14.544;2022-11-14T01:46:34;99080.00;;;9.35;100.00
56182;BME280;51963;46.052;14.544;2022-11-14T01:49:21;99071.09;;;9.44;100.00
56182;BME280;51963;46.052;14.544;2022-11-14T01:52:22;99075.06;;;9.40;100.00
56182;BME280;51963;46.052;14.544;2022-11-14T01:55:08;99068.09;;;9.22;100.00
56182;BME280;51963;46.052;14.544;2022-11-14T01:57:53;99069.75;;;9.23;100.00
56182;BME280;51963;46.052;14.544;2022-11-14T02:00:38;99061.50;;;9.27;100.00
56182;BME280;51963;46.052;14.544;2022-11-14T02:03:23;99062.34;;;9.27;100.00
56182;BME280;51963;46.052;14.544;2022-11-14T02:06:09;99060.84;;;9.24;100.00
56182;BME280;51963;46.052;14.544;2022-11-14T02:08:57;99047.31;;;9.19;100.00
56182;BME280;51963;46.052;14.544;2022-11-14T02:11:44;99048.56;;;8.90;100.00
56182;BME280;51963;46.052;14.544;2022-11-14T02:14:29;99052.84;;;8.91;100.00
56182;BME280;51963;46.052;14.544;2022-11-14T02:17:15;99058.16;;;9.00;100.00
56182;BME280;51963;46.052;14.544;2022-11-14T02:22:51;99046.91;;;8.89;100.00
56182;BME280;51963;46.052;14.544;2022-11-14T02:25:35;99036.69;;;8.86;100.00
56182;BME280;51963;46.052;14.544;2022-11-14T02:28:20;99033.00;;;8.71;100.00
56182;BME280;51963;46.052;14.544;2022-11-14T02:31:05;99023.66;;;8.76;100.00
56182;BME280;51963;46.052;14.544;2022-11-14T02:33:49;99031.56;;;8.76;100.00
56182;BME280;51963;46.052;14.544;2022-11-14T02:36:33;99030.69;;;8.68;100.00
56182;BME280;51963;46.052;14.544;2022-11-14T02:39:17;99030.03;;;8.65;100.00
56182;BME280;51963;46.052;14.544;2022-11-14T02:42:01;99032.16;;;8.62;100.00
56182;BME280;51963;46.052;14.544;2022-11-14T02:44:46;99018.78;;;8.55;100.00
56182;BME280;51963;46.052;14.544;2022-11-14T02:47:30;99033.53;;;8.74;100.00
56182;BME280;51963;46.052;14.544;2022-11-14T02:50:15;99037.25;;;8.63;100.00
56182;BME280;51963;46.052;14.544;2022-11-14T02:52:59;99042.09;;;8.76;100.00
56182;BME280;51963;46.052;14.544;2022-11-14T02:55:43;99034.69;;;8.80;100.00
56182;BME280;51963;46.052;14.544;2022-11-14T02:58:30;99047.22;;;8.86;100.00
56182;BME280;51963;46.052;14.544;2022-11-14T03:01:15;99027.09;;;8.77;100.00
56182;BME280;51963;46.052;14.544;2022-11-14T03:03:59;99038.47;;;8.77;100.00
56182;BME280;51963;46.052;14.544;2022-11-14T03:06:43;99036.94;;;8.66;100.00
56182;BME280;51963;46.052;14.544;2022-11-14T03:09:27;99041.72;;;8.63;100.00
56182;BME280;51963;46.052;14.544;2022-11-14T03:12:15;99038.56;;;8.59;100.00
56182;BME280;51963;46.052;14.544;2022-11-14T03:15:00;99045.81;;;8.57;100.00
56182;BME280;51963;46.052;14.544;2022-11-14T03:17:45;99042.75;;;8.70;100.00
56182;BME280;51963;46.052;14.544;2022-11-14T03:20:29;99038.41;;;8.61;100.00
56182;BME280;51963;46.052;14.544;2022-11-14T03:23:14;99036.56;;;8.53;100.00
56182;BME280;51963;46.052;14.544;2022-11-14T03:26:03;99045.31;;;8.54;100.00
56182;BME280;51963;46.052;14.544;2022-11-14T03:28:48;99044.78;;;8.50;100.00
56182;BME280;51963;46.052;14.544;2022-11-14T03:31:32;99056.59;;;8.46;100.00
56182;BME280;51963;46.052;14.544;2022-11-14T03:34:16;99046.88;;;8.46;100.00
56182;BME280;51963;46.052;14.544;2022-11-14T03:37:01;99041.63;;;8.46;100.00
56182;BME280;51963;46.052;14.544;2022-11-14T03:39:45;99041.50;;;8.56;100.00
56182;BME280;51963;46.052;14.544;2022-11-14T03:42:33;99052.19;;;8.89;100.00
56182;BME280;51963;46.052;14.544;2022-11-14T03:45:18;99054.22;;;9.04;100.00
56182;BME280;51963;46.052;14.544;2022-11-14T03:48:03;99046.91;;;8.89;100.00
56182;BME280;51963;46.052;14.544;2022-11-14T03:50:48;99050.69;;;8.78;100.00
56182;BME280;51963;46.052;14.544;2022-11-14T03:53:32;99057.59;;;8.79;100.00
56182;BME280;51963;46.052;14.544;2022-11-14T03:56:16;99042.19;;;8.58;100.00
56182;BME280;51963;46.052;14.544;2022-11-14T03:59:00;99055.47;;;8.83;100.00
56182;BME280;51963;46.052;14.544;2022-11-14T04:01:44;99051.84;;;8.84;100.00
56182;BME280;51963;46.052;14.544;2022-11-14T04:04:29;99053.13;;;8.80;100.00
56182;BME280;51963;46.052;14.544;2022-11-14T04:07:13;99039.19;;;8.88;100.00
56182;BME280;51963;46.052;14.544;2022-11-14T04:09:57;99048.47;;;8.65;100.00
56182;BME280;51963;46.052;14.544;2022-11-14T04:12:47;99052.59;;;8.60;100.00
56182;BME280;51963;46.052;14.544;2022-11-14T04:15:32;99037.16;;;8.47;100.00
56182;BME280;51963;46.052;14.544;2022-11-14T04:18:16;99026.59;;;8.39;100.00
56182;BME280;51963;46.052;14.544;2022-11-14T04:21:00;99016.53;;;8.34;100.00
56182;BME280;51963;46.052;14.544;2022-11-14T04:23:45;99026.00;;;8.53;100.00
56182;BME280;51963;46.052;14.544;2022-11-14T04:26:29;99027.66;;;8.54;100.00
56182;BME280;51963;46.052;14.544;2022-11-14T04:29:13;99023.09;;;8.64;100.00
56182;BME280;51963;46.052;14.544;2022-11-14T04:31:58;99018.09;;;8.53;100.00
56182;BME280;51963;46.052;14.544;2022-11-14T04:34:42;99023.81;;;8.40;100.00
56182;BME280;51963;46.052;14.544;2022-11-14T04:37:26;99018.69;;;8.39;100.00
56182;BME280;51963;46.052;14.544;2022-11-14T04:40:10;99021.31;;;8.39;100.00
56182;BME280;51963;46.052;14.544;2022-11-14T04:42:54;99024.94;;;8.64;100.00
56182;BME280;51963;46.052;14.544;2022-11-14T04:45:38;99032.31;;;8.60;100.00
56182;BME280;51963;46.052;14.544;2022-11-14T04:48:22;99033.97;;;8.61;100.00
56182;BME280;51963;46.052;14.544;2022-11-14T04:51:06;99031.31;;;8.61;100.00
56182;BME280;51963;46.052;14.544;2022-11-14T04:53:51;99024.13;;;8.72;100.00
56182;BME280;51963;46.052;14.544;2022-11-14T04:56:35;99016.84;;;8.65;100.00
56182;BME280;51963;46.052;14.544;2022-11-14T04:59:19;99012.44;;;8.74;100.00
56182;BME280;51963;46.052;14.544;2022-11-14T05:02:04;99014.25;;;8.82;100.00
56182;BME280;51963;46.052;14.544;2022-11-14T05:04:48;99018.19;;;8.78;100.00
56182;BME280;51963;46.052;14.544;2022-11-14T05:07:33;99010.94;;;8.72;100.00
56182;BME280;51963;46.052;14.544;2022-11-14T05:10:16;99023.44;;;8.70;100.00
56182;BME280;51963;46.052;14.544;2022-11-14T05:13:00;99036.56;;;8.53;100.00
56182;BME280;51963;46.052;14.544;2022-11-14T05:15:45;99024.97;;;8.46;100.00
56182;BME280;51963;46.052;14.544;2022-11-14T05:18:29;99029.88;;;8.67;100.00
56182;BME280;51963;46.052;14.544;2022-11-14T05:21:14;99024.47;;;8.77;100.00
56182;BME280;51963;46.052;14.544;2022-11-14T05:23:58;99016.53;;;8.69;100.00
56182;BME280;51963;46.052;14.544;2022-11-14T05:26:42;99030.41;;;8.79;100.00
56182;BME280;51963;46.052;14.544;2022-11-14T05:29:26;99030.03;;;8.65;100.00
56182;BME280;51963;46.052;14.544;2022-11-14T05:32:10;99024.47;;;8.77;100.00
56182;BME280;51963;46.052;14.544;2022-11-14T05:34:57;99035.34;;;8.82;100.00
56182;BME280;51963;46.052;14.544;2022-11-14T05:37:41;99045.56;;;8.85;100.00
56182;BME280;51963;46.052;14.544;2022-11-14T05:40:25;99034.19;;;8.76;100.00
56182;BME280;51963;46.052;14.544;2022-11-14T05:43:09;99039.97;;;8.80;100.00
56182;BME280;51963;46.052;14.544;2022-11-14T05:45:58;99037.28;;;8.72;100.00
56182;BME280;51963;46.052;14.544;2022-11-14T05:48:43;99045.09;;;8.82;100.00
56182;BME280;51963;46.052;14.544;2022-11-14T05:51:28;99040.97;;;8.87;100.00
56182;BME280;51963;46.052;14.544;2022-11-14T05:54:12;99050.78;;;8.69;100.00
56182;BME280;51963;46.052;14.544;2022-11-14T05:56:56;99046.13;;;8.54;100.00
56182;BME280;51963;46.052;14.544;2022-11-14T05:59:40;99041.41;;;8.40;100.00
56182;BME280;51963;46.052;14.544;2022-11-14T06:02:24;99046.22;;;8.44;100.00
56182;BME280;51963;46.052;14.544;2022-11-14T06:05:08;99045.97;;;8.56;100.00
56182;BME280;51963;46.052;14.544;2022-11-14T06:07:57;99055.13;;;8.78;100.00
56182;BME280;51963;46.052;14.544;2022-11-14T06:10:41;99050.13;;;8.66;100.00
56182;BME280;51963;46.052;14.544;2022-11-14T06:13:25;99036.66;;;8.78;100.00
56182;BME280;51963;46.052;14.544;2022-11-14T06:16:12;99038.47;;;8.77;100.00
56182;BME280;51963;46.052;14.544;2022-11-14T06:18:56;99052.72;;;8.93;100.00
56182;BME280;51963;46.052;14.544;2022-11-14T06:21:41;99047.94;;;9.05;100.00
56182;BME280;51963;46.052;14.544;2022-11-14T06:24:25;99057.84;;;9.11;100.00
56182;BME280;51963;46.052;14.544;2022-11-14T06:27:12;99044.97;;;9.00;100.00
56182;BME280;51963;46.052;14.544;2022-11-14T06:29:55;99053.72;;;9.00;100.00
56182;BME280;51963;46.052;14.544;2022-11-14T06:32:40;99055.03;;;9.04;100.00
56182;BME280;51963;46.052;14.544;2022-11-14T06:35:25;99056.50;;;8.99;100.00
56182;BME280;51963;46.052;14.544;2022-11-14T06:38:09;99058.47;;;8.97;100.00
56182;BME280;51963;46.052;14.544;2022-11-14T06:41:07;99061.03;;;8.72;100.00
56182;BME280;51963;46.052;14.544;2022-11-14T06:43:51;99065.72;;;8.94;100.00
56182;BME280;51963;46.052;14.544;2022-11-14T06:46:37;99067.84;;;8.83;100.00
56182;BME280;51963;46.052;14.544;2022-11-14T06:49:21;99079.22;;;8.91;100.00
56182;BME280;51963;46.052;14.544;2022-11-14T06:52:07;99077.75;;;8.89;100.00
56182;BME280;51963;46.052;14.544;2022-11-14T06:54:51;99070.66;;;8.98;100.00
56182;BME280;51963;46.052;14.544;2022-11-14T06:57:36;99064.38;;;8.90;100.00
56182;BME280;51963;46.052;14.544;2022-11-14T07:00:21;99054.78;;;8.81;100.00
56182;BME280;51963;46.052;14.544;2022-11-14T07:03:05;99061.44;;;9.02;100.00
56182;BME280;51963;46.052;14.544;2022-11-14T07:05:49;99053.88;;;9.07;100.00
56182;BME280;51963;46.052;14.544;2022-11-14T07:08:33;99058.06;;;9.26;100.00
56182;BME280;51963;46.052;14.544;2022-11-14T07:11:20;99049.44;;;9.07;100.00
56182;BME280;51963;46.052;14.544;2022-11-14T07:14:09;99056.88;;;9.12;100.00
56182;BME280;51963;46.052;14.544;2022-11-14T07:16:53;99055.19;;;9.03;100.00
56182;BME280;51963;46.052;14.544;2022-11-14T07:19:37;99065.13;;;9.17;100.00
56182;BME280;51963;46.052;14.544;2022-11-14T07:22:21;99063.31;;;9.09;100.00
56182;BME280;51963;46.052;14.544;2022-11-14T07:25:06;99067.25;;;9.05;100.00
56182;BME280;51963;46.052;14.544;2022-11-14T07:27:50;99079.13;;;9.09;100.00
56182;BME280;51963;46.052;14.544;2022-11-14T07:30:35;99074.03;;;9.16;100.00
56182;BME280;51963;46.052;14.544;2022-11-14T07:33:19;99081.97;;;9.24;100.00
56182;BME280;51963;46.052;14.544;2022-11-14T07:36:04;99086.56;;;9.22;100.00
56182;BME280;51963;46.052;14.544;2022-11-14T07:38:49;99079.00;;;9.36;100.00
56182;BME280;51963;46.052;14.544;2022-11-14T07:45:27;99057.25;;;9.92;100.00
56182;BME280;51963;46.052;14.544;2022-11-14T07:48:12;99050.31;;;9.91;100.00
56182;BME280;51963;46.052;14.544;2022-11-14T07:51:00;99039.59;;;10.01;100.00
56182;BME280;51963;46.052;14.544;2022-11-14T07:53:44;99033.78;;;10.13;100.00
56182;BME280;51963;46.052;14.544;2022-11-14T07:56:29;99050.47;;;10.06;100.00
56182;BME280;51963;46.052;14.544;2022-11-14T07:59:13;99051.00;;;9.84;100.00
56182;BME280;51963;46.052;14.544;2022-11-14T08:01:57;99052.31;;;9.72;100.00
56182;BME280;51963;46.052;14.544;2022-11-14T08:04:41;99056.59;;;9.90;100.00
56182;BME280;51963;46.052;14.544;2022-11-14T08:07:25;99060.09;;;9.74;100.00
56182;BME280;51963;46.052;14.544;2022-11-14T08:10:10;99046.69;;;9.67;100.00
56182;BME280;51963;46.052;14.544;2022-11-14T08:13:02;99035.16;;;9.51;100.00
56182;BME280;51963;46.052;14.544;2022-11-14T08:15:47;99044.06;;;9.50;100.00
56182;BME280;51963;46.052;14.544;2022-11-14T08:18:31;99029.19;;;9.24;100.00
56182;BME280;51963;46.052;14.544;2022-11-14T08:21:15;99041.06;;;9.29;100.00
56182;BME280;51963;46.052;14.544;2022-11-14T08:24:00;99042.72;;;9.30;100.00
56182;BME280;51963;46.052;14.544;2022-11-14T08:26:44;99031.66;;;9.18;100.00
56182;BME280;51963;46.052;14.544;2022-11-14T08:29:28;99047.97;;;9.21;100.00
56182;BME280;51963;46.052;14.544;2022-11-14T08:32:12;99036.13;;;9.25;100.00
56182;BME280;51963;46.052;14.544;2022-11-14T08:34:56;99030.03;;;9.25;100.00
56182;BME280;51963;46.052;14.544;2022-11-14T08:37:41;99021.78;;;9.20;100.00
56182;BME280;51963;46.052;14.544;2022-11-14T08:40:25;99016.31;;;9.21;100.00
56182;BME280;51963;46.052;14.544;2022-11-14T08:43:09;99013.22;;;9.26;100.00
56182;BME280;51963;46.052;14.544;2022-11-14T08:45:58;98999.84;;;9.36;100.00
56182;BME280;51963;46.052;14.544;2022-11-14T08:48:45;98987.63;;;9.68;100.00
56182;BME280;51963;46.052;14.544;2022-11-14T08:51:29;98995.41;;;9.69;100.00
56182;BME280;51963;46.052;14.544;2022-11-14T08:54:13;99001.31;;;9.96;100.00
56182;BME280;51963;46.052;14.544;2022-11-14T08:56:57;99003.91;;;10.05;100.00
56182;BME280;51963;46.052;14.544;2022-11-14T08:59:41;98998.94;;;10.18;100.00
56182;BME280;51963;46.052;14.544;2022-11-14T09:02:26;99000.09;;;10.16;100.00
56182;BME280;51963;46.052;14.544;2022-11-14T09:05:10;99014.56;;;10.36;100.00
56182;BME280;51963;46.052;14.544;2022-11-14T09:07:54;99007.63;;;10.44;100.00
56182;BME280;51963;46.052;14.544;2022-11-14T09:10:38;98999.66;;;10.52;100.00
56182;BME280;51963;46.052;14.544;2022-11-14T09:13:22;98994.75;;;10.40;100.00
56182;BME280;51963;46.052;14.544;2022-11-14T09:16:07;99005.78;;;10.52;100.00
56182;BME280;51963;46.052;14.544;2022-11-14T09:18:51;98997.41;;;10.40;100.00
56182;BME280;51963;46.052;14.544;2022-11-14T09:21:35;98987.13;;;10.37;100.00
56182;BME280;51963;46.052;14.544;2022-11-14T09:24:19;98986.91;;;10.95;100.00
56182;BME280;51963;46.052;14.544;2022-11-14T09:27:03;98994.72;;;10.49;100.00
56182;BME280;51963;46.052;14.544;2022-11-14T09:29:48;98970.16;;;11.03;100.00
56182;BME280;51963;46.052;14.544;2022-11-14T09:32:32;98971.41;;;11.54;100.00
56182;BME280;51963;46.052;14.544;2022-11-14T09:35:16;98976.13;;;11.82;100.00
56182;BME280;51963;46.052;14.544;2022-11-14T09:38:06;98969.72;;;11.76;100.00
56182;BME280;51963;46.052;14.544;2022-11-14T09:40:59;98968.09;;;11.75;100.00
56182;BME280;51963;46.052;14.544;2022-11-14T09:44:16;98965.72;;;11.80;100.00
56182;BME280;51963;46.052;14.544;2022-11-14T09:47:07;98952.91;;;11.69;100.00
56182;BME280;51963;46.052;14.544;2022-11-14T09:49:58;98934.13;;;11.40;100.00
56182;BME280;51963;46.052;14.544;2022-11-14T09:52:51;98932.09;;;11.66;100.00
56182;BME280;51963;46.052;14.544;2022-11-14T09:55:39;98925.97;;;11.27;100.00
56182;BME280;51963;46.052;14.544;2022-11-14T09:58:25;98915.06;;;11.45;100.00
56182;BME280;51963;46.052;14.544;2022-11-14T10:01:27;98921.50;;;11.96;100.00
56182;BME280;51963;46.052;14.544;2022-11-14T10:08:01;98938.41;;;11.95;100.00
56182;BME280;51963;46.052;14.544;2022-11-14T10:11:02;98942.72;;;12.11;100.00
56182;BME280;51963;46.052;14.544;2022-11-14T10:19:52;98947.72;;;11.37;100.00
56182;BME280;51963;46.052;14.544;2022-11-14T10:22:49;98944.78;;;11.70;100.00
56182;BME280;51963;46.052;14.544;2022-11-14T10:25:49;98938.09;;;11.59;100.00
56182;BME280;51963;46.052;14.544;2022-11-14T10:28:56;98937.69;;;11.48;100.00
56182;BME280;51963;46.052;14.544;2022-11-14T10:38:28;98921.78;;;11.33;100.00
56182;BME280;51963;46.052;14.544;2022-11-14T10:41:16;98921.28;;;11.14;100.00
56182;BME280;51963;46.052;14.544;2022-11-14T10:44:01;98917.09;;;11.20;100.00
56182;BME280;51963;46.052;14.544;2022-11-14T10:46:53;98917.28;;;11.18;100.00
56182;BME280;51963;46.052;14.544;2022-11-14T10:49:39;98919.66;;;11.13;100.00
56182;BME280;51963;46.052;14.544;2022-11-14T10:52:35;98920.28;;;11.15;100.00
56182;BME280;51963;46.052;14.544;2022-11-14T10:55:20;98924.50;;;11.24;100.00
56182;BME280;51963;46.052;14.544;2022-11-14T10:58:09;98908.09;;;11.29;100.00
56182;BME280;51963;46.052;14.544;2022-11-14T11:00:53;98899.53;;;11.42;100.00
56182;BME280;51963;46.052;14.544;2022-11-14T11:03:42;98897.72;;;11.57;100.00
56182;BME280;51963;46.052;14.544;2022-11-14T11:06:28;98916.91;;;11.59;100.00
56182;BME280;51963;46.052;14.544;2022-11-14T11:09:30;98900.69;;;11.24;100.00
56182;BME280;51963;46.052;14.544;2022-11-14T11:18:26;98901.50;;;12.08;98.00
56182;BME280;51963;46.052;14.544;2022-11-14T11:21:13;98906.19;;;12.06;97.16
56182;BME280;51963;46.052;14.544;2022-11-14T11:23:58;98896.81;;;11.50;99.48
56182;BME280;51963;46.052;14.544;2022-11-14T11:26:42;98892.69;;;11.33;100.00
56182;BME280;51963;46.052;14.544;2022-11-14T11:29:26;98888.25;;;11.78;100.00
56182;BME280;51963;46.052;14.544;2022-11-14T11:32:23;98900.66;;;11.93;98.30
56182;BME280;51963;46.052;14.544;2022-11-14T11:35:14;98897.19;;;11.77;97.32
56182;BME280;51963;46.052;14.544;2022-11-14T11:38:01;98895.56;;;11.76;99.18
56182;BME280;51963;46.052;14.544;2022-11-14T11:40:50;98895.84;;;11.81;98.85
56182;BME280;51963;46.052;14.544;2022-11-14T11:43:42;98890.97;;;11.85;100.00
56182;BME280;51963;46.052;14.544;2022-11-14T11:46:38;98895.00;;;11.81;100.00
56182;BME280;51963;46.052;14.544;2022-11-14T11:49:47;98895.16;;;11.64;100.00
56182;BME280;51963;46.052;14.544;2022-11-14T11:55:31;98879.75;;;11.68;100.00
56182;BME280;51963;46.052;14.544;2022-11-14T11:58:25;98882.69;;;11.73;100.00
56182;BME280;51963;46.052;14.544;2022-11-14T12:01:13;98865.31;;;11.85;100.00
56182;BME280;51963;46.052;14.544;2022-11-14T12:03:59;98881.38;;;11.39;100.00
56182;BME280;51963;46.052;14.544;2022-11-14T12:06:55;98859.34;;;11.38;100.00
56182;BME280;51963;46.052;14.544;2022-11-14T12:09:41;98850.03;;;11.27;100.00
56182;BME280;51963;46.052;14.544;2022-11-14T12:15:52;98843.50;;;11.53;100.00
56182;BME280;51963;46.052;14.544;2022-11-14T12:19:30;98846.41;;;11.58;100.00
56182;BME280;51963;46.052;14.544;2022-11-14T12:25:34;98823.59;;;11.57;100.00
56182;BME280;51963;46.052;14.544;2022-11-14T12:31:31;98791.34;;;11.39;100.00
56182;BME280;51963;46.052;14.544;2022-11-14T12:34:36;98811.69;;;11.68;100.00
56182;BME280;51963;46.052;14.544;2022-11-14T12:37:33;98822.50;;;11.67;100.00
56182;BME280;51963;46.052;14.544;2022-11-14T12:43:40;98805.88;;;11.73;100.00
56182;BME280;51963;46.052;14.544;2022-11-14T12:46:25;98797.28;;;11.71;100.00
56182;BME280;51963;46.052;14.544;2022-11-14T13:08:14;98800.75;;;11.26;100.00
56182;BME280;51963;46.052;14.544;2022-11-14T13:14:52;98803.31;;;11.35;100.00
56182;BME280;51963;46.052;14.544;2022-11-14T13:18:03;98801.84;;;11.32;100.00
56182;BME280;51963;46.052;14.544;2022-11-14T13:21:25;98800.75;;;11.26;100.00
56182;BME280;51963;46.052;14.544;2022-11-14T13:27:42;98792.13;;;10.94;100.00
56182;BME280;51963;46.052;14.544;2022-11-14T13:33:51;98779.69;;;10.80;100.00
56182;BME280;51963;46.052;14.544;2022-11-14T13:37:18;98780.53;;;10.57;100.00
56182;BME280;51963;46.052;14.544;2022-11-14T13:43:24;98784.97;;;10.33;100.00
56182;BME280;51963;46.052;14.544;2022-11-14T13:52:12;98765.69;;;10.01;100.00
56182;BME280;51963;46.052;14.544;2022-11-14T13:54:57;98775.91;;;10.04;100.00
56182;BME280;51963;46.052;14.544;2022-11-14T14:09:40;98756.78;;;9.71;100.00
56182;BME280;51963;46.052;14.544;2022-11-14T14:15:28;98762.09;;;9.62;100.00
56182;BME280;51963;46.052;14.544;2022-11-14T14:24:02;98743.81;;;9.52;100.00
56182;BME280;51963;46.052;14.544;2022-11-14T14:29:54;98758.22;;;9.42;100.00
56182;BME280;51963;46.052;14.544;2022-11-14T14:32:41;98751.31;;;9.32;100.00
56182;BME280;51963;46.052;14.544;2022-11-14T14:35:31;98738.94;;;9.33;100.00
56182;BME280;51963;46.052;14.544;2022-11-14T14:38:23;98738.78;;;9.34;100.00
56182;BME280;51963;46.052;14.544;2022-11-14T14:41:09;98730.69;;;9.36;100.00
56182;BME280;51963;46.052;14.544;2022-11-14T14:43:55;98736.44;;;9.39;100.00
56182;BME280;51963;46.052;14.544;2022-11-14T14:46:39;98735.94;;;9.36;100.00
56182;BME280;51963;46.052;14.544;2022-11-14T14:49:30;98735.16;;;9.35;100.00
56182;BME280;51963;46.052;14.544;2022-11-14T14:52:29;98726.75;;;9.23;100.00
56182;BME280;51963;46.052;14.544;2022-11-14T14:55:25;98736.28;;;9.33;100.00
56182;BME280;51963;46.052;14.544;2022-11-14T15:01:12;98717.78;;;9.41;100.00
56182;BME280;51963;46.052;14.544;2022-11-14T15:04:13;98711.09;;;9.30;100.00
56182;BME280;51963;46.052;14.544;2022-11-14T15:06:58;98717.16;;;9.31;100.00
56182;BME280;51963;46.052;14.544;2022-11-14T15:09:57;98725.28;;;9.29;100.00
56182;BME280;51963;46.052;14.544;2022-11-14T15:12:43;98723.75;;;9.35;100.00
56182;BME280;51963;46.052;14.544;2022-11-14T15:15:27;98718.13;;;9.38;100.00
56182;BME280;51963;46.052;14.544;2022-11-14T15:18:22;98719.44;;;9.42;100.00
56182;BME280;51963;46.052;14.544;2022-11-14T15:24:18;98724.72;;;9.42;100.00
56182;BME280;51963;46.052;14.544;2022-11-14T15:27:17;98729.34;;;9.40;100.00
56182;BME280;51963;46.052;14.544;2022-11-14T15:30:05;98723.44;;;9.30;100.00
56182;BME280;51963;46.052;14.544;2022-11-14T15:32:52;98719.16;;;9.29;100.00
56182;BME280;51963;46.052;14.544;2022-11-14T15:35:38;98710.94;;;9.23;100.00
56182;BME280;51963;46.052;14.544;2022-11-14T15:38:23;98716.56;;;9.20;100.00
56182;BME280;51963;46.052;14.544;2022-11-14T15:41:29;98714.25;;;9.17;100.00
56182;BME280;51963;46.052;14.544;2022-11-14T15:44:30;98714.78;;;9.13;100.00
56182;BME280;51963;46.052;14.544;2022-11-14T15:53:04;98701.28;;;9.07;100.00
56182;BME280;51963;46.052;14.544;2022-11-14T15:55:49;98693.84;;;9.03;100.00
56182;BME280;51963;46.052;14.544;2022-11-14T15:58:33;98704.72;;;9.08;100.00
56182;BME280;51963;46.052;14.544;2022-11-14T16:01:22;98704.06;;;9.06;100.00
56182;BME280;51963;46.052;14.544;2022-11-14T16:04:17;98707.50;;;9.15;100.00
56182;BME280;51963;46.052;14.544;2022-11-14T16:07:02;98705.06;;;9.05;100.00
56182;BME280;51963;46.052;14.544;2022-11-14T16:09:47;98705.59;;;9.00;100.00
56182;BME280;51963;46.052;14.544;2022-11-14T16:12:31;98703.44;;;8.95;100.00
56182;BME280;51963;46.052;14.544;2022-11-14T16:15:16;98708.72;;;8.95;100.00
56182;BME280;51963;46.052;14.544;2022-11-14T16:18:03;98707.88;;;9.03;100.00
56182;BME280;51963;46.052;14.544;2022-11-14T16:20:48;98708.03;;;9.02;100.00
56182;BME280;51963;46.052;14.544;2022-11-14T16:23:34;98707.88;;;9.03;100.00
56182;BME280;51963;46.052;14.544;2022-11-14T16:26:19;98718.59;;;9.02;100.00
56182;BME280;51963;46.052;14.544;2022-11-14T16:29:03;98693.63;;;9.29;100.00
56182;BME280;51963;46.052;14.544;2022-11-14T16:31:47;98700.88;;;9.27;100.00